createdAt,value
2023-05-07T00:00:41.271Z,11.45
2023-05-07T00:03:42.955Z,11.42
2023-05-07T00:06:44.606Z,11.38
2023-05-07T00:09:46.163Z,11.35
2023-05-07T00:12:47.803Z,11.38
2023-05-07T00:15:49.291Z,11.38
2023-05-07T00:18:51.271Z,11.34
2023-05-07T00:21:54.559Z,11.34
2023-05-07T00:24:56.142Z,11.35
2023-05-07T00:28:03.623Z,11.39
2023-05-07T00:31:05.238Z,11.45
2023-05-07T00:34:07.119Z,11.42
2023-05-07T00:37:09.791Z,11.48
2023-05-07T00:40:11.848Z,11.42
2023-05-07T00:43:13.662Z,11.40
2023-05-07T00:46:16.818Z,11.41
2023-05-07T00:49:19.355Z,11.39
2023-05-07T00:52:22.694Z,11.35
2023-05-07T00:55:24.974Z,11.34
2023-05-07T00:58:26.671Z,11.32
2023-05-07T01:01:28.326Z,11.33
2023-05-07T01:04:29.872Z,11.32
2023-05-07T01:07:32.931Z,11.33
2023-05-07T01:10:34.562Z,11.34
2023-05-07T01:13:37.705Z,11.31
2023-05-07T01:16:41.579Z,11.31
2023-05-07T01:19:45.004Z,11.30
2023-05-07T01:22:46.975Z,11.26
2023-05-07T01:25:56.109Z,11.26
2023-05-07T01:29:00.217Z,11.24
2023-05-07T01:32:03.404Z,11.17
2023-05-07T01:35:08.366Z,11.13
2023-05-07T01:38:10.131Z,11.08
2023-05-07T01:41:12.912Z,11.09
2023-05-07T01:44:16.229Z,11.06
2023-05-07T01:47:17.956Z,11.04
2023-05-07T01:50:20.762Z,11.04
2023-05-07T01:53:22.236Z,10.96
2023-05-07T01:56:24.943Z,10.97
2023-05-07T01:59:26.519Z,10.90
2023-05-07T02:02:28.144Z,10.91
2023-05-07T02:05:31.994Z,10.84
2023-05-07T02:08:38.752Z,10.81
2023-05-07T02:11:40.611Z,10.78
2023-05-07T02:14:42.499Z,10.70
2023-05-07T02:18:05.562Z,10.64
2023-05-07T02:21:07.248Z,10.62
2023-05-07T02:24:08.780Z,10.56
2023-05-07T02:27:10.341Z,10.57
2023-05-07T02:30:13.328Z,10.59
2023-05-07T02:33:15.176Z,10.52
2023-05-07T02:36:17.444Z,10.53
2023-05-07T02:39:34.367Z,10.54
2023-05-07T02:42:35.996Z,10.52
2023-05-07T02:45:38.603Z,10.45
2023-05-07T02:48:41.554Z,10.41
2023-05-07T02:51:43.082Z,10.32
2023-05-07T02:54:50.520Z,10.30
2023-05-07T02:57:52.080Z,10.27
2023-05-07T03:00:55.520Z,10.27
2023-05-07T03:04:08.857Z,10.29
2023-05-07T03:07:10.466Z,10.33
2023-05-07T03:10:12.298Z,10.28
2023-05-07T03:13:13.998Z,10.21
2023-05-07T03:16:16.217Z,10.15
2023-05-07T03:19:17.787Z,10.12
2023-05-07T03:22:19.448Z,10.14
2023-05-07T03:25:21.541Z,10.15
2023-05-07T03:28:23.059Z,10.14
2023-05-07T03:31:32.521Z,10.11
2023-05-07T03:34:36.126Z,10.05
2023-05-07T03:37:39.060Z,9.99
2023-05-07T03:40:41.124Z,9.97
2023-05-07T03:43:42.868Z,10.06
2023-05-07T03:46:46.918Z,10.03
2023-05-07T03:49:49.866Z,10.08
2023-05-07T03:52:51.692Z,10.08
2023-05-07T03:55:55.816Z,10.07
2023-05-07T03:58:57.794Z,10.06
2023-05-07T04:01:59.556Z,10.05
2023-05-07T04:05:03.865Z,10.09
2023-05-07T04:08:06.374Z,10.12
2023-05-07T04:11:14.694Z,10.16
2023-05-07T04:14:16.539Z,10.18
2023-05-07T04:17:18.251Z,10.18
2023-05-07T04:20:19.829Z,10.26
2023-05-07T04:23:26.306Z,10.34
2023-05-07T04:26:29.255Z,10.40
2023-05-07T04:29:31.531Z,10.43
2023-05-07T04:32:33.312Z,10.43
2023-05-07T04:35:35.834Z,10.44
2023-05-07T04:38:39.613Z,10.48
2023-05-07T04:41:41.626Z,10.53
2023-05-07T04:44:46.001Z,10.61
2023-05-07T04:47:48.043Z,10.70
2023-05-07T04:50:50.853Z,10.78
2023-05-07T04:53:53.239Z,10.98
2023-05-07T04:56:55.220Z,11.13
2023-05-07T04:59:57.017Z,11.28
2023-05-07T05:02:58.692Z,11.45
2023-05-07T05:06:00.839Z,11.61
2023-05-07T05:09:05.905Z,11.62
2023-05-07T05:12:10.417Z,11.71
2023-05-07T05:15:13.875Z,11.89
2023-05-07T05:18:15.476Z,12.08
2023-05-07T05:21:17.069Z,12.21
2023-05-07T05:24:21.369Z,12.39
2023-05-07T05:27:23.039Z,12.49
2023-05-07T05:30:24.612Z,12.57
2023-05-07T05:33:27.007Z,12.63
2023-05-07T05:36:29.458Z,12.71
2023-05-07T05:39:32.957Z,12.83
2023-05-07T05:42:34.609Z,12.94
2023-05-07T05:45:36.605Z,13.07
2023-05-07T05:48:38.249Z,13.25
2023-05-07T05:51:41.230Z,13.35
2023-05-07T05:54:43.307Z,13.38
2023-05-07T05:57:45.003Z,13.55
2023-05-07T06:00:47.300Z,13.70
2023-05-07T06:03:49.167Z,13.92
2023-05-07T06:06:51.142Z,14.38
2023-05-07T06:09:53.146Z,14.82
2023-05-07T06:12:55.453Z,15.34
2023-05-07T06:15:57.357Z,15.95
2023-05-07T06:18:58.860Z,16.30
2023-05-07T06:22:02.329Z,16.26
2023-05-07T06:25:05.327Z,16.42
2023-05-07T06:28:07.045Z,16.48
2023-05-07T06:31:18.608Z,16.48
2023-05-07T06:34:26.511Z,16.56
2023-05-07T06:37:28.158Z,16.44
2023-05-07T06:40:38.556Z,16.03
2023-05-07T06:43:40.441Z,15.92
2023-05-07T06:47:00.746Z,15.88
2023-05-07T06:50:02.877Z,15.79
2023-05-07T06:53:07.634Z,15.72
2023-05-07T06:56:09.350Z,15.79
2023-05-07T06:59:11.837Z,15.88
2023-05-07T07:02:17.699Z,15.97
2023-05-07T07:05:20.399Z,15.94
2023-05-07T07:08:23.273Z,15.92
2023-05-07T07:11:25.790Z,15.94
2023-05-07T07:14:27.463Z,15.96
2023-05-07T07:17:29.875Z,15.87
2023-05-07T07:20:31.652Z,16.03
2023-05-07T07:23:33.748Z,16.27
2023-05-07T07:26:35.656Z,16.52
2023-05-07T07:29:37.533Z,16.82
2023-05-07T07:32:39.283Z,17.06
2023-05-07T07:35:40.935Z,17.17
2023-05-07T07:38:42.692Z,17.20
2023-05-07T07:41:44.535Z,17.12
2023-05-07T07:44:47.184Z,17.15
2023-05-07T07:47:51.233Z,17.22
2023-05-07T07:50:53.227Z,17.25
2023-05-07T07:53:55.081Z,17.31
2023-05-07T07:56:57.351Z,17.44
2023-05-07T07:59:59.869Z,17.57
2023-05-07T08:03:04.819Z,17.69
2023-05-07T08:06:11.932Z,17.77
2023-05-07T08:09:13.982Z,17.90
2023-05-07T08:12:17.015Z,18.05
2023-05-07T08:15:18.972Z,18.22
2023-05-07T08:18:20.728Z,18.26
2023-05-07T08:21:23.650Z,18.54
2023-05-07T08:24:25.194Z,18.68
2023-05-07T08:27:27.281Z,18.90
2023-05-07T08:30:28.868Z,18.99
2023-05-07T08:33:30.674Z,19.43
2023-05-07T08:36:32.283Z,19.62
2023-05-07T08:39:33.898Z,19.60
2023-05-07T08:42:38.745Z,19.92
2023-05-07T08:45:41.295Z,20.20
2023-05-07T08:48:45.577Z,20.13
2023-05-07T08:51:50.205Z,20.05
2023-05-07T08:54:51.723Z,19.99
2023-05-07T08:57:54.018Z,19.90
2023-05-07T09:00:56.694Z,19.72
2023-05-07T09:03:59.283Z,19.45
2023-05-07T09:07:06.308Z,19.46
2023-05-07T09:10:11.675Z,19.38
2023-05-07T09:13:15.690Z,19.42
2023-05-07T09:16:17.911Z,19.62
2023-05-07T09:19:25.452Z,19.74
2023-05-07T09:22:32.872Z,19.82
2023-05-07T09:25:39.031Z,20.02
2023-05-07T09:28:48.054Z,20.11
2023-05-07T09:31:50.719Z,20.12
2023-05-07T09:34:53.661Z,20.34
2023-05-07T09:38:03.596Z,20.23
2023-05-07T09:41:10.177Z,20.27
2023-05-07T09:44:33.343Z,20.42
2023-05-07T09:47:40.100Z,20.73
2023-05-07T09:50:50.559Z,20.66
2023-05-07T09:53:55.081Z,20.70
2023-05-07T09:56:59.591Z,20.57
2023-05-07T10:00:07.191Z,20.36
2023-05-07T10:03:23.526Z,20.19
2023-05-07T10:06:31.313Z,20.08
2023-05-07T10:09:39.363Z,19.69
2023-05-07T10:12:43.160Z,19.55
2023-05-07T10:15:53.856Z,19.13
2023-05-07T10:18:58.011Z,18.76
2023-05-07T10:22:06.869Z,18.34
2023-05-07T10:25:21.752Z,18.00
2023-05-07T10:28:26.676Z,17.59
2023-05-07T10:31:56.848Z,16.57
2023-05-07T10:35:03.124Z,15.69
2023-05-07T10:38:05.924Z,15.35
2023-05-07T10:41:11.544Z,15.33
2023-05-07T10:44:32.010Z,15.47
2023-05-07T10:51:28.865Z,16.33
2023-05-07T10:54:39.830Z,16.83
2023-05-07T10:57:45.926Z,17.54
2023-05-07T11:01:03.523Z,18.36
2023-05-07T11:04:15.960Z,18.96
2023-05-07T11:07:45.530Z,19.31
2023-05-07T11:11:15.898Z,19.64
2023-05-07T11:14:41.121Z,19.86
2023-05-07T11:17:56.551Z,20.24
2023-05-07T11:21:00.834Z,20.97
2023-05-07T11:24:23.259Z,21.63
2023-05-07T11:27:35.047Z,21.97
2023-05-07T11:30:36.784Z,22.30
2023-05-07T11:33:40.409Z,22.54
2023-05-07T11:36:46.327Z,22.66
2023-05-07T11:39:55.501Z,22.53
2023-05-07T11:42:56.991Z,22.55
2023-05-07T11:46:08.069Z,22.37
2023-05-07T11:49:09.876Z,22.25
2023-05-07T11:52:14.543Z,22.53
2023-05-07T11:55:19.581Z,22.57
2023-05-07T11:58:26.719Z,22.36
2023-05-07T12:01:28.297Z,22.22
2023-05-07T12:04:31.454Z,22.20
2023-05-07T12:07:35.244Z,21.87
2023-05-07T12:10:41.475Z,22.02
2023-05-07T12:13:43.006Z,21.94
2023-05-07T12:16:46.002Z,21.91
2023-05-07T12:19:48.038Z,21.68
2023-05-07T12:22:51.180Z,21.60
2023-05-07T12:25:52.804Z,21.97
2023-05-07T12:28:54.401Z,22.25
2023-05-07T12:31:55.970Z,22.27
2023-05-07T12:34:57.500Z,22.15
2023-05-07T12:38:05.060Z,21.71
2023-05-07T12:41:08.412Z,21.73
2023-05-07T12:44:09.902Z,21.51
2023-05-07T12:47:11.580Z,21.65
2023-05-07T12:50:15.075Z,21.80
2023-05-07T12:53:16.806Z,21.85
2023-05-07T12:56:18.338Z,21.87
2023-05-07T12:59:19.861Z,21.54
2023-05-07T13:02:21.453Z,20.98
2023-05-07T13:05:22.931Z,20.76
2023-05-07T13:08:45.460Z,20.65
2023-05-07T13:11:46.928Z,20.43
2023-05-07T13:14:48.391Z,20.10
2023-05-07T13:17:50.037Z,19.92
2023-05-07T13:20:52.155Z,19.58
2023-05-07T13:23:53.830Z,19.38
2023-05-07T13:26:55.738Z,19.13
2023-05-07T13:29:57.629Z,19.11
2023-05-07T13:32:59.210Z,19.04
2023-05-07T13:36:01.707Z,19.04
2023-05-07T13:39:04.524Z,19.09
2023-05-07T13:42:06.181Z,19.08
2023-05-07T13:45:08.480Z,19.21
2023-05-07T13:48:09.996Z,19.61
2023-05-07T13:51:11.737Z,20.50
2023-05-07T13:54:13.234Z,21.35
2023-05-07T13:57:14.790Z,22.09
2023-05-07T14:00:17.284Z,22.88
2023-05-07T14:03:20.631Z,23.51
2023-05-07T14:06:22.856Z,23.52
2023-05-07T14:09:24.780Z,23.26
2023-05-07T14:12:26.496Z,23.19
2023-05-07T14:15:28.034Z,23.22
2023-05-07T14:18:29.995Z,22.77
2023-05-07T14:21:31.895Z,22.74
2023-05-07T14:24:38.604Z,22.83
2023-05-07T14:27:40.609Z,23.09
2023-05-07T14:30:42.158Z,23.28
2023-05-07T14:33:43.686Z,22.95
2023-05-07T14:36:45.242Z,22.59
2023-05-07T14:39:49.948Z,22.20
2023-05-07T14:42:52.020Z,21.95
2023-05-07T14:45:53.619Z,21.73
2023-05-07T14:48:55.469Z,21.51
2023-05-07T14:52:00.297Z,21.03
2023-05-07T14:55:01.737Z,20.64
2023-05-07T14:58:03.266Z,20.48
2023-05-07T15:01:04.936Z,20.39
2023-05-07T15:04:06.977Z,20.44
2023-05-07T15:07:08.478Z,20.63
2023-05-07T15:10:10.269Z,20.68
2023-05-07T15:13:15.555Z,20.82
2023-05-07T15:16:17.784Z,20.76
2023-05-07T15:19:19.363Z,20.82
2023-05-07T15:22:22.441Z,20.80
2023-05-07T15:25:24.225Z,20.75
2023-05-07T15:28:26.058Z,20.82
2023-05-07T15:31:31.149Z,21.92
2023-05-07T15:34:32.693Z,23.40
2023-05-07T15:37:34.748Z,23.68
2023-05-07T15:40:38.650Z,23.91
2023-05-07T15:43:46.808Z,23.53
2023-05-07T15:46:48.362Z,22.93
2023-05-07T15:49:49.854Z,22.76
2023-05-07T15:52:51.415Z,22.64
2023-05-07T15:55:52.943Z,22.94
2023-05-07T15:58:54.481Z,23.27
2023-05-07T16:01:56.028Z,23.38
2023-05-07T16:04:57.539Z,24.45
2023-05-07T16:08:00.134Z,25.14
2023-05-07T16:11:01.651Z,24.70
2023-05-07T16:14:03.181Z,24.41
2023-05-07T16:17:04.764Z,23.58
2023-05-07T16:20:08.676Z,23.14
2023-05-07T16:23:10.570Z,23.02
2023-05-07T16:26:14.137Z,22.88
2023-05-07T16:29:23.170Z,22.56
2023-05-07T16:32:24.919Z,22.15
2023-05-07T16:35:26.775Z,21.76
2023-05-07T16:38:31.211Z,21.48
2023-05-07T16:41:32.999Z,21.48
2023-05-07T16:44:34.456Z,21.47
2023-05-07T16:47:36.285Z,21.07
2023-05-07T16:50:38.212Z,20.65
2023-05-07T16:53:39.748Z,20.46
2023-05-07T16:56:42.414Z,20.49
2023-05-07T16:59:43.947Z,20.62
2023-05-07T17:02:46.815Z,20.54
2023-05-07T17:05:48.509Z,20.31
2023-05-07T17:08:51.468Z,20.09
2023-05-07T17:11:53.030Z,19.78
2023-05-07T17:14:54.492Z,19.59
2023-05-07T17:17:56.219Z,19.38
2023-05-07T17:20:57.829Z,19.10
2023-05-07T17:23:59.370Z,18.99
2023-05-07T17:27:00.927Z,18.89
2023-05-07T17:30:02.979Z,18.79
2023-05-07T17:33:19.315Z,18.63
2023-05-07T17:36:22.213Z,18.40
2023-05-07T17:39:24.496Z,18.11
2023-05-07T17:42:26.151Z,18.05
2023-05-07T17:45:27.622Z,17.92
2023-05-07T17:48:29.335Z,17.80
2023-05-07T17:51:36.263Z,17.80
2023-05-07T17:54:43.887Z,17.76
2023-05-07T17:57:45.431Z,17.86
2023-05-07T18:00:49.373Z,17.85
2023-05-07T18:03:51.381Z,17.77
2023-05-07T18:06:53.363Z,17.66
2023-05-07T18:09:54.979Z,17.67
2023-05-07T18:12:56.639Z,17.65
2023-05-07T18:15:58.128Z,17.56
2023-05-07T18:19:00.720Z,17.49
2023-05-07T18:22:03.059Z,17.46
2023-05-07T18:25:05.002Z,17.34
2023-05-07T18:28:06.506Z,17.27
2023-05-07T18:31:08.098Z,17.11
2023-05-07T18:34:10.430Z,17.00
2023-05-07T18:37:11.925Z,16.93
2023-05-07T18:40:13.811Z,16.89
2023-05-07T18:43:15.602Z,16.84
2023-05-07T18:46:17.053Z,16.80
2023-05-07T18:49:18.795Z,16.73
2023-05-07T18:52:21.975Z,16.66
2023-05-07T18:55:23.547Z,16.62
2023-05-07T18:58:25.102Z,16.58
2023-05-07T19:01:26.744Z,16.53
2023-05-07T19:04:29.951Z,16.46
2023-05-07T19:07:31.757Z,16.33
2023-05-07T19:10:33.278Z,16.32
2023-05-07T19:13:34.817Z,16.32
2023-05-07T19:16:36.976Z,16.28
2023-05-07T19:19:38.634Z,16.29
2023-05-07T19:22:42.740Z,16.28
2023-05-07T19:25:44.249Z,16.25
2023-05-07T19:28:48.462Z,16.27
2023-05-07T19:31:58.057Z,16.22
2023-05-07T19:34:59.678Z,16.19
2023-05-07T19:38:02.021Z,16.11
2023-05-07T19:41:03.560Z,16.05
2023-05-07T19:44:05.066Z,16.05
2023-05-07T19:47:06.826Z,16.05
2023-05-07T19:50:08.770Z,15.91
2023-05-07T19:53:10.835Z,15.79
2023-05-07T19:56:12.691Z,15.90
2023-05-07T19:59:14.345Z,15.95
2023-05-07T20:02:16.547Z,15.98
2023-05-07T20:05:18.158Z,15.91
2023-05-07T20:08:19.737Z,15.90
2023-05-07T20:11:21.731Z,15.82
2023-05-07T20:14:23.314Z,15.71
2023-05-07T20:17:24.879Z,15.62
2023-05-07T20:20:26.326Z,15.61
2023-05-07T20:23:27.876Z,15.56
2023-05-07T20:26:29.379Z,15.50
2023-05-07T20:29:31.145Z,15.52
2023-05-07T20:32:32.898Z,15.48
2023-05-07T20:35:34.446Z,15.46
2023-05-07T20:38:36.023Z,15.40
2023-05-07T20:41:37.697Z,15.30
2023-05-07T20:44:39.156Z,15.24
2023-05-07T20:47:41.184Z,15.32
2023-05-07T20:50:42.695Z,15.35
2023-05-07T20:53:46.138Z,15.34
2023-05-07T20:56:49.156Z,15.29
2023-05-07T20:59:50.788Z,15.27
2023-05-07T21:02:53.273Z,15.28
2023-05-07T21:05:56.566Z,15.26
2023-05-07T21:08:58.042Z,15.17
2023-05-07T21:11:59.601Z,15.12
2023-05-07T21:15:01.112Z,15.11
2023-05-07T21:18:02.846Z,15.17
2023-05-07T21:21:09.158Z,15.23
2023-05-07T21:24:11.416Z,15.24
2023-05-07T21:27:12.972Z,15.19
2023-05-07T21:30:15.256Z,15.09
2023-05-07T21:33:16.948Z,15.04
2023-05-07T21:36:18.877Z,14.98
2023-05-07T21:39:22.440Z,15.01
2023-05-07T21:42:25.226Z,15.07
2023-05-07T21:45:29.830Z,15.07
2023-05-07T21:48:31.337Z,15.04
2023-05-07T21:51:34.462Z,15.06
2023-05-07T21:54:35.934Z,15.12
2023-05-07T21:57:37.749Z,15.11
2023-05-07T22:00:39.315Z,15.11
2023-05-07T22:03:41.052Z,15.12
2023-05-07T22:06:42.605Z,15.09
2023-05-07T22:09:44.100Z,15.07
2023-05-07T22:12:45.642Z,15.12
2023-05-07T22:15:56.775Z,15.05
2023-05-07T22:18:59.324Z,14.99
2023-05-07T22:22:00.775Z,14.94
2023-05-07T22:25:02.327Z,14.89
2023-05-07T22:28:04.004Z,14.89
2023-05-07T22:31:05.592Z,14.82
2023-05-07T22:34:07.013Z,14.71
2023-05-07T22:37:08.632Z,14.78
2023-05-07T22:40:10.767Z,14.78
2023-05-07T22:43:12.462Z,14.71
2023-05-07T22:46:14.004Z,14.68
2023-05-07T22:49:15.535Z,14.66
2023-05-07T22:52:17.304Z,14.63
2023-05-07T22:55:18.867Z,14.56
2023-05-07T22:58:20.450Z,14.59
2023-05-07T23:01:22.026Z,14.56
2023-05-07T23:04:23.556Z,14.53
2023-05-07T23:07:25.043Z,14.52
2023-05-07T23:10:26.567Z,14.48
2023-05-07T23:13:28.246Z,14.53
2023-05-07T23:16:30.217Z,14.50
2023-05-07T23:19:31.785Z,14.49
2023-05-07T23:22:33.267Z,14.49
2023-05-07T23:25:34.742Z,14.49
2023-05-07T23:28:36.192Z,14.51
2023-05-07T23:31:37.795Z,14.49
2023-05-07T23:34:39.279Z,14.44
2023-05-07T23:37:41.247Z,14.39
2023-05-07T23:40:42.821Z,14.41
2023-05-07T23:43:44.287Z,14.34
2023-05-07T23:46:46.161Z,14.23
2023-05-07T23:49:48.050Z,14.24
2023-05-07T23:52:49.562Z,14.32
2023-05-07T23:55:51.104Z,14.35
2023-05-07T23:58:52.611Z,14.31
